Station Historical Data
Daily Summary for May 27, 2017 Units:  English    Metric   Both
« Previous Day
Next Day »
Daily Weekly Monthly Yearly Custom
  High: Low: Average:
Temperature: 68.4 °F 53.8 °F 59.8 °F
Dew Point: 57.0 °F 51.2 °F 53.8 °F
Humidity: 94% 62% 82%
Wind Speed: 7.0mph 0.0mph 1.7mph
Wind Gust: 9.0mph - -
Wind- - WSW
Pressure: 29.92 in 29.88 in -
Precipitation: 0.00 in    
Historical Graphs
 
 
Tabular Data for May 27, 2017
Time Temperature Dew Point Pressure Wind Wind Speed Wind Gust Humidity Rainfall Rate (Hourly)
00:04 53.8 °F 52.1 °F 29.88 in SW 2.0 mph 6.0 mph 94% 0.01 in
00:09 53.8 °F 52.1 °F 29.88 in SW 2.0 mph 6.0 mph 94% 0.01 in
00:14 53.8 °F 52.1 °F 29.88 in WSW 2.0 mph 4.0 mph 94% 0.01 in
00:19 53.9 °F 52.2 °F 29.89 in SW 2.0 mph 7.0 mph 94% 0.01 in
00:24 53.9 °F 52.2 °F 29.88 in SW 2.0 mph 7.0 mph 94% 0.01 in
00:29 53.9 °F 52.2 °F 29.88 in SW 2.0 mph 5.0 mph 94% 0.01 in
00:34 53.9 °F 52.2 °F 29.88 in SW 2.0 mph 5.0 mph 94% 0.01 in
00:39 54.0 °F 52.3 °F 29.88 in SW 2.0 mph 5.0 mph 94% 0.01 in
00:44 54.0 °F 52.3 °F 29.88 in SSW 3.0 mph 6.0 mph 94% 0.01 in
00:49 53.9 °F 52.2 °F 29.88 in SW 3.0 mph 6.0 mph 94% 0.00 in
00:54 53.9 °F 52.2 °F 29.88 in SW 2.0 mph 4.0 mph 94% 0.00 in
00:59 53.9 °F 52.2 °F 29.88 in SSW 3.0 mph 6.0 mph 94% 0.00 in
01:04 54.1 °F 52.4 °F 29.88 in SW 2.0 mph 3.0 mph 94% 0.00 in
01:09 54.1 °F 52.4 °F 29.88 in WSW 3.0 mph 5.0 mph 94% 0.00 in
01:14 54.1 °F 52.4 °F 29.88 in WSW 7.0 mph 7.0 mph 94% 0.00 in
01:19 53.9 °F 52.2 °F 29.88 in SW 3.0 mph 7.0 mph 94% 0.00 in
01:24 54.0 °F 52.3 °F 29.88 in SW 3.0 mph 7.0 mph 94% 0.00 in
01:29 53.9 °F 52.2 °F 29.88 in SSW 2.0 mph 6.0 mph 94% 0.00 in
01:34 53.9 °F 52.2 °F 29.88 in SW 1.0 mph 6.0 mph 94% 0.00 in
01:39 53.9 °F 52.2 °F 29.88 in WSW 2.0 mph 5.0 mph 94% 0.00 in
01:44 53.9 °F 52.2 °F 29.88 in SW 2.0 mph 5.0 mph 94% 0.00 in
01:49 54.0 °F 52.3 °F 29.88 in SW 3.0 mph 5.0 mph 94% 0.00 in
01:54 53.9 °F 52.2 °F 29.88 in SW 3.0 mph 7.0 mph 94% 0.00 in
01:59 53.9 °F 52.2 °F 29.89 in SW 2.0 mph 7.0 mph 94% 0.00 in
02:04 53.9 °F 52.2 °F 29.89 in SW 3.0 mph 8.0 mph 94% 0.00 in
02:09 53.9 °F 52.2 °F 29.89 in WSW 3.0 mph 8.0 mph 94% 0.00 in
02:14 53.9 °F 52.2 °F 29.89 in WSW 2.0 mph 5.0 mph 94% 0.00 in
02:19 54.0 °F 52.3 °F 29.89 in WSW 1.0 mph 4.0 mph 94% 0.00 in
02:24 54.0 °F 52.3 °F 29.89 in SW 5.0 mph 6.0 mph 94% 0.00 in
02:29 54.0 °F 52.0 °F 29.89 in SW 3.0 mph 6.0 mph 93% 0.00 in
02:34 54.0 °F 52.3 °F 29.89 in WSW 4.0 mph 9.0 mph 94% 0.00 in
02:39 54.0 °F 52.3 °F 29.89 in SSW 2.0 mph 6.0 mph 94% 0.00 in
02:44 53.9 °F 52.2 °F 29.89 in SW 3.0 mph 6.0 mph 94% 0.00 in
02:49 54.0 °F 52.3 °F 29.89 in SW 3.0 mph 6.0 mph 94% 0.00 in
02:54 54.0 °F 52.3 °F 29.89 in SW 3.0 mph 6.0 mph 94% 0.00 in
02:59 54.0 °F 52.3 °F 29.89 in SW 2.0 mph 5.0 mph 94% 0.00 in
03:04 54.0 °F 52.3 °F 29.89 in SW 1.0 mph 6.0 mph 94% 0.00 in
03:09 54.0 °F 52.3 °F 29.89 in SW 1.0 mph 3.0 mph 94% 0.00 in
03:14 54.0 °F 52.3 °F 29.89 in SW 1.0 mph 3.0 mph 94% 0.00 in
03:19 54.0 °F 52.0 °F 29.89 in SW 2.0 mph 5.0 mph 93% 0.00 in
03:24 54.0 °F 52.0 °F 29.89 in SSW 4.0 mph 7.0 mph 93% 0.00 in
03:29 53.9 °F 52.2 °F 29.89 in SW 1.0 mph 4.0 mph 94% 0.00 in
03:34 54.0 °F 52.3 °F 29.89 in WSW 2.0 mph 7.0 mph 94% 0.00 in
03:39 54.0 °F 52.3 °F 29.89 in SSW 2.0 mph 5.0 mph 94% 0.00 in
03:44 54.0 °F 52.3 °F 29.89 in SW 2.0 mph 5.0 mph 94% 0.00 in
03:49 54.0 °F 52.0 °F 29.89 in SW 3.0 mph 5.0 mph 93% 0.00 in
03:54 54.0 °F 52.0 °F 29.89 in SW 2.0 mph 4.0 mph 93% 0.00 in
03:59 54.0 °F 52.3 °F 29.89 in West 2.0 mph 6.0 mph 94% 0.00 in
04:04 54.0 °F 52.0 °F 29.89 in SW 5.0 mph 5.0 mph 93% 0.00 in
04:09 54.0 °F 52.0 °F 29.89 in SSW 2.0 mph 5.0 mph 93% 0.00 in
04:14 54.0 °F 52.0 °F 29.88 in SW 3.0 mph 7.0 mph 93% 0.00 in
04:19 54.0 °F 52.0 °F 29.89 in SW 3.0 mph 7.0 mph 93% 0.00 in
04:24 54.0 °F 52.0 °F 29.89 in SW 2.0 mph 6.0 mph 93% 0.00 in
04:29 54.1 °F 52.1 °F 29.89 in SW 2.0 mph 6.0 mph 93% 0.00 in
04:34 54.1 °F 52.1 °F 29.89 in SW 4.0 mph 5.0 mph 93% 0.00 in
04:39 54.1 °F 52.1 °F 29.89 in SW 2.0 mph 6.0 mph 93% 0.00 in
04:44 54.2 °F 52.2 °F 29.89 in SW 3.0 mph 6.0 mph 93% 0.00 in
04:49 54.2 °F 52.2 °F 29.89 in SW 3.0 mph 5.0 mph 93% 0.00 in
04:54 54.2 °F 52.2 °F 29.89 in SW 3.0 mph 6.0 mph 93% 0.00 in
04:59 54.1 °F 52.1 °F 29.89 in SW 1.0 mph 7.0 mph 93% 0.00 in
05:04 54.1 °F 52.1 °F 29.89 in SSW 4.0 mph 6.0 mph 93% 0.00 in
05:09 54.1 °F 52.1 °F 29.89 in SW 3.0 mph 4.0 mph 93% 0.00 in
05:14 54.2 °F 52.2 °F 29.89 in SW 2.0 mph 4.0 mph 93% 0.00 in
05:19 54.1 °F 52.1 °F 29.89 in SW 2.0 mph 4.0 mph 93% 0.00 in
05:24 54.1 °F 52.1 °F 29.89 in SW 1.0 mph 4.0 mph 93% 0.00 in
05:29 54.2 °F 52.2 °F 29.89 in WSW 2.0 mph 4.0 mph 93% 0.00 in
05:34 54.3 °F 52.3 °F 29.89 in Calm     93% 0.00 in
05:39 54.3 °F 52.3 °F 29.89 in SW 1.0 mph 4.0 mph 93% 0.00 in
05:44 54.4 °F 52.4 °F 29.89 in SW 1.0 mph 4.0 mph 93% 0.00 in
05:49 54.3 °F 52.3 °F 29.89 in SW 1.0 mph 3.0 mph 93% 0.00 in
05:54 54.3 °F 52.3 °F 29.89 in SW 1.0 mph 5.0 mph 93% 0.00 in
05:59 54.4 °F 52.4 °F 29.89 in Calm   3.0 mph 93% 0.00 in
06:04 54.4 °F 52.4 °F 29.89 in SW 1.0 mph 4.0 mph 93% 0.00 in
06:09 54.4 °F 52.4 °F 29.89 in Calm   3.0 mph 93% 0.00 in
06:14 54.4 °F 52.4 °F 29.89 in Calm     93% 0.00 in
06:19 54.5 °F 52.5 °F 29.90 in Calm   4.0 mph 93% 0.00 in
06:24 54.5 °F 52.5 °F 29.90 in SW 1.0 mph 4.0 mph 93% 0.00 in
06:29 54.6 °F 52.6 °F 29.90 in SW 1.0 mph 4.0 mph 93% 0.00 in
06:34 54.7 °F 52.7 °F 29.90 in SW 2.0 mph 4.0 mph 93% 0.00 in
06:39 54.7 °F 52.7 °F 29.90 in SW 3.0 mph 5.0 mph 93% 0.00 in
06:44 54.8 °F 52.8 °F 29.90 in Calm   4.0 mph 93% 0.00 in
06:49 54.9 °F 52.9 °F 29.90 in SW 2.0 mph 6.0 mph 93% 0.00 in
06:54 54.9 °F 52.9 °F 29.90 in SW 3.0 mph 6.0 mph 93% 0.00 in
06:59 55.0 °F 53.0 °F 29.90 in SSW 3.0 mph 6.0 mph 93% 0.00 in
07:04 55.0 °F 53.0 °F 29.90 in SW 1.0 mph 6.0 mph 93% 0.00 in
07:09 55.0 °F 53.0 °F 29.90 in SW 2.0 mph 4.0 mph 93% 0.00 in
07:14 55.2 °F 53.2 °F 29.90 in Calm   4.0 mph 93% 0.00 in
07:19 55.2 °F 53.2 °F 29.90 in SW 2.0 mph 5.0 mph 93% 0.00 in
07:24 55.4 °F 53.1 °F 29.91 in SW 3.0 mph 5.0 mph 92% 0.00 in
07:29 55.4 °F 53.1 °F 29.91 in SW 3.0 mph 5.0 mph 92% 0.00 in
07:34 55.4 °F 53.1 °F 29.91 in SW 3.0 mph 7.0 mph 92% 0.00 in
07:39 55.6 °F 53.3 °F 29.91 in WSW 1.0 mph 6.0 mph 92% 0.00 in
07:44 55.7 °F 53.4 °F 29.90 in SSW 1.0 mph 8.0 mph 92% 0.00 in
07:49 55.9 °F 53.6 °F 29.91 in SW 4.0 mph 5.0 mph 92% 0.00 in
07:54 56.0 °F 53.4 °F 29.90 in SW 3.0 mph 6.0 mph 91% 0.00 in
07:59 56.3 °F 53.7 °F 29.90 in WSW 3.0 mph 6.0 mph 91% 0.00 in
08:04 56.5 °F 53.9 °F 29.90 in SSW 1.0 mph 6.0 mph 91% 0.00 in
08:09 56.5 °F 53.6 °F 29.90 in SW 1.0 mph 5.0 mph 90% 0.00 in
08:14 56.8 °F 53.9 °F 29.90 in SSW 4.0 mph 5.0 mph 90% 0.00 in
08:19 56.8 °F 53.9 °F 29.90 in South 3.0 mph 6.0 mph 90% 0.00 in
08:24 56.9 °F 54.0 °F 29.90 in SSW 2.0 mph 6.0 mph 90% 0.00 in
08:29 57.1 °F 54.2 °F 29.90 in SW 1.0 mph 4.0 mph 90% 0.00 in
08:34 57.3 °F 54.4 °F 29.90 in WSW 1.0 mph 3.0 mph 90% 0.00 in
08:39 57.6 °F 54.4 °F 29.91 in WSW 2.0 mph 4.0 mph 89% 0.00 in
08:44 57.5 °F 54.3 °F 29.91 in WSW 2.0 mph 4.0 mph 89% 0.00 in
08:49 57.4 °F 54.2 °F 29.91 in WSW 1.0 mph 6.0 mph 89% 0.00 in
08:54 57.5 °F 54.3 °F 29.91 in WSW 2.0 mph 6.0 mph 89% 0.00 in
08:59 57.8 °F 54.3 °F 29.91 in SW 1.0 mph 4.0 mph 88% 0.00 in
09:04 58.0 °F 54.8 °F 29.90 in SW 1.0 mph 3.0 mph 89% 0.00 in
09:09 58.1 °F 54.6 °F 29.91 in Calm   6.0 mph 88% 0.00 in
09:14 58.2 °F 54.7 °F 29.91 in SW 3.0 mph 5.0 mph 88% 0.00 in
09:19 58.3 °F 54.8 °F 29.91 in SSW 3.0 mph 5.0 mph 88% 0.00 in
09:24 58.4 °F 54.9 °F 29.91 in SW 3.0 mph 6.0 mph 88% 0.00 in
09:29 58.6 °F 55.1 °F 29.91 in SW 3.0 mph 6.0 mph 88% 0.00 in
09:34 58.5 °F 54.6 °F 29.91 in SW 3.0 mph 6.0 mph 87% 0.00 in
09:39 58.5 °F 55.0 °F 29.92 in SW 3.0 mph 5.0 mph 88% 0.00 in
09:44 58.4 °F 54.5 °F 29.92 in WSW 3.0 mph 5.0 mph 87% 0.00 in
09:49 58.0 °F 54.2 °F 29.92 in WSW 3.0 mph 6.0 mph 87% 0.00 in
09:54 58.0 °F 54.2 °F 29.92 in WSW 3.0 mph 7.0 mph 87% 0.00 in
09:59 58.0 °F 54.2 °F 29.91 in SW 3.0 mph 6.0 mph 87% 0.00 in
10:04 58.3 °F 54.4 °F 29.91 in WSW 2.0 mph 6.0 mph 87% 0.00 in
10:09 58.8 °F 54.9 °F 29.91 in SW 4.0 mph 6.0 mph 87% 0.00 in
10:14 58.9 °F 54.7 °F 29.92 in SW 2.0 mph 6.0 mph 86% 0.00 in
10:19 58.8 °F 54.3 °F 29.92 in WSW 3.0 mph 6.0 mph 85% 0.00 in
10:24 58.6 °F 54.4 °F 29.92 in West 4.0 mph 7.0 mph 86% 0.00 in
10:29 58.9 °F 54.4 °F 29.92 in WSW 3.0 mph 8.0 mph 85% 0.00 in
10:34 59.7 °F 55.5 °F 29.92 in West 3.0 mph 8.0 mph 86% 0.00 in
10:39 59.6 °F 54.8 °F 29.92 in West 3.0 mph 6.0 mph 84% 0.00 in
10:44 59.8 °F 55.0 °F 29.92 in West 1.0 mph 5.0 mph 84% 0.00 in
10:49 60.2 °F 55.3 °F 29.92 in WSW 1.0 mph 4.0 mph 84% 0.00 in
10:54 60.1 °F 55.6 °F 29.92 in WSW 3.0 mph 6.0 mph 85% 0.00 in
10:59 60.0 °F 55.2 °F 29.92 in WSW 3.0 mph 6.0 mph 84% 0.00 in
11:04 60.2 °F 55.0 °F 29.91 in WSW 2.0 mph 5.0 mph 83% 0.00 in
11:09 60.6 °F 55.4 °F 29.92 in WSW 3.0 mph 5.0 mph 83% 0.00 in
11:14 60.8 °F 55.3 °F 29.92 in SSW 2.0 mph 5.0 mph 82% 0.00 in
11:19 61.2 °F 55.7 °F 29.91 in SW 4.0 mph 6.0 mph 82% 0.00 in
11:24 60.8 °F 54.9 °F 29.91 in SW 2.0 mph 6.0 mph 81% 0.00 in
11:29 61.2 °F 55.7 °F 29.91 in SW 2.0 mph 6.0 mph 82% 0.00 in
11:34 61.8 °F 56.6 °F 29.91 in SW 4.0 mph 5.0 mph 83% 0.00 in
11:39 62.6 °F 56.3 °F 29.91 in SW 2.0 mph 5.0 mph 80% 0.00 in
11:44 62.9 °F 56.6 °F 29.91 in SSW 2.0 mph 5.0 mph 80% 0.00 in
11:49 63.1 °F 56.8 °F 29.91 in SW 2.0 mph 4.0 mph 80% 0.00 in
11:54 63.0 °F 56.0 °F 29.91 in SW 2.0 mph 5.0 mph 78% 0.00 in
11:59 63.5 °F 56.5 °F 29.92 in SW 3.0 mph 6.0 mph 78% 0.00 in
12:04 64.0 °F 57.0 °F 29.91 in SW 4.0 mph 6.0 mph 78% 0.00 in
12:09 63.6 °F 55.9 °F 29.92 in WSW 3.0 mph 6.0 mph 76% 0.00 in
12:14 64.7 °F 57.0 °F 29.92 in WSW 3.0 mph 7.0 mph 76% 0.00 in
12:19 64.6 °F 56.9 °F 29.92 in West 2.0 mph 6.0 mph 76% 0.00 in
12:24 65.0 °F 55.8 °F 29.92 in West 1.0 mph 5.0 mph 72% 0.00 in
12:29 64.7 °F 55.8 °F 29.91 in Calm   6.0 mph 73% 0.00 in
12:34 65.4 °F 56.9 °F 29.91 in WNW 4.0 mph 6.0 mph 74% 0.00 in
12:39 65.2 °F 56.3 °F 29.91 in Calm   6.0 mph 73% 0.00 in
12:44 65.2 °F 55.9 °F 29.91 in Calm   4.0 mph 72% 0.00 in
12:49 64.8 °F 56.3 °F 29.92 in WNW 4.0 mph 7.0 mph 74% 0.00 in
12:54 64.9 °F 55.3 °F 29.92 in WSW 3.0 mph 7.0 mph 71% 0.00 in
12:59 65.2 °F 55.9 °F 29.92 in West 3.0 mph 7.0 mph 72% 0.00 in
13:04 64.8 °F 55.6 °F 29.92 in WNW 2.0 mph 7.0 mph 72% 0.00 in
13:09 64.4 °F 54.8 °F 29.91 in WNW 2.0 mph 7.0 mph 71% 0.00 in
13:14 64.2 °F 54.6 °F 29.91 in West 2.0 mph 5.0 mph 71% 0.00 in
13:19 64.3 °F 55.5 °F 29.92 in West 2.0 mph 5.0 mph 73% 0.00 in
13:24 64.4 °F 55.9 °F 29.91 in NW 3.0 mph 4.0 mph 74% 0.00 in
13:29 64.4 °F 55.6 °F 29.91 in NW 1.0 mph 3.0 mph 73% 0.00 in
13:34 64.7 °F 55.8 °F 29.92 in West 2.0 mph 5.0 mph 73% 0.00 in
13:39 64.4 °F 55.2 °F 29.92 in WNW 2.0 mph 4.0 mph 72% 0.00 in
13:44 64.9 °F 56.0 °F 29.92 in WNW 3.0 mph 7.0 mph 73% 0.00 in
13:49 65.1 °F 56.2 °F 29.92 in West 2.0 mph 6.0 mph 73% 0.00 in
13:54 65.0 °F 55.8 °F 29.92 in West 2.0 mph 6.0 mph 72% 0.00 in
13:59 65.3 °F 56.0 °F 29.92 in WNW 3.0 mph 6.0 mph 72% 0.00 in
14:04 65.3 °F 55.7 °F 29.92 in WNW 3.0 mph 6.0 mph 71% 0.00 in
14:09 65.8 °F 56.1 °F 29.92 in WNW 3.0 mph 6.0 mph 71% 0.00 in
14:14 66.2 °F 56.1 °F 29.91 in WNW 3.0 mph 5.0 mph 70% 0.00 in
14:19 66.1 °F 55.6 °F 29.92 in WNW 3.0 mph 8.0 mph 69% 0.00 in
14:24 66.2 °F 55.7 °F 29.91 in WNW 2.0 mph 5.0 mph 69% 0.00 in
14:29 65.8 °F 54.5 °F 29.91 in West 2.0 mph 5.0 mph 67% 0.00 in
14:34 65.6 °F 55.9 °F 29.91 in WSW 2.0 mph 5.0 mph 71% 0.00 in
14:39 66.3 °F 55.8 °F 29.91 in WSW 2.0 mph 5.0 mph 69% 0.00 in
14:44 66.6 °F 56.9 °F 29.90 in SW 1.0 mph 4.0 mph 71% 0.00 in
14:49 66.8 °F 55.9 °F 29.90 in Calm   4.0 mph 68% 0.00 in
14:59 66.2 °F 54.5 °F 29.90 in WSW 2.0 mph 6.0 mph 66% 0.00 in
15:04 66.1 °F 55.6 °F 29.90 in SW 3.0 mph 6.0 mph 69% 0.00 in
15:09 66.8 °F 55.5 °F 29.90 in SW 2.0 mph 6.0 mph 67% 0.00 in
15:14 66.6 °F 55.7 °F 29.90 in WSW 1.0 mph 5.0 mph 68% 0.00 in
15:19 66.2 °F 55.3 °F 29.90 in SW 7.0 mph 7.0 mph 68% 0.00 in
15:24 66.4 °F 55.9 °F 29.90 in WSW 1.0 mph 7.0 mph 69% 0.00 in
15:29 66.3 °F 55.4 °F 29.90 in WSW 1.0 mph 4.0 mph 68% 0.00 in
15:34 66.2 °F 55.7 °F 29.90 in WSW 2.0 mph 4.0 mph 69% 0.00 in
15:39 66.8 °F 55.9 °F 29.89 in West 2.0 mph 5.0 mph 68% 0.00 in
15:44 66.7 °F 55.8 °F 29.89 in WNW 2.0 mph 5.0 mph 68% 0.00 in
15:49 66.8 °F 55.1 °F 29.88 in West 2.0 mph 5.0 mph 66% 0.00 in
15:54 66.9 °F 55.6 °F 29.88 in West 2.0 mph 4.0 mph 67% 0.00 in
15:59 66.9 °F 55.6 °F 29.89 in Calm   3.0 mph 67% 0.00 in
16:04 67.4 °F 56.5 °F 29.89 in WSW 3.0 mph 5.0 mph 68% 0.00 in
16:09 67.4 °F 55.6 °F 29.89 in WSW 3.0 mph 4.0 mph 66% 0.00 in
16:14 66.6 °F 54.9 °F 29.89 in West 4.0 mph 4.0 mph 66% 0.00 in
16:19 67.0 °F 55.7 °F 29.89 in WNW 2.0 mph 5.0 mph 67% 0.00 in
16:24 66.7 °F 55.0 °F 29.89 in NW 2.0 mph 4.0 mph 66% 0.00 in
16:29 66.5 °F 55.2 °F 29.89 in West 4.0 mph 4.0 mph 67% 0.00 in
16:34 66.6 °F 54.9 °F 29.89 in WNW 2.0 mph 5.0 mph 66% 0.00 in
16:39 66.3 °F 55.0 °F 29.90 in West 2.0 mph 5.0 mph 67% 0.00 in
16:44 66.2 °F 54.9 °F 29.90 in WNW 2.0 mph 6.0 mph 67% 0.00 in
16:49 66.1 °F 54.8 °F 29.89 in WNW 3.0 mph 4.0 mph 67% 0.00 in
16:54 65.9 °F 54.6 °F 29.90 in Calm   3.0 mph 67% 0.00 in
16:59 65.8 °F 54.1 °F 29.89 in Calm   3.0 mph 66% 0.00 in
17:04 65.7 °F 54.4 °F 29.90 in WNW 1.0 mph 3.0 mph 67% 0.00 in
17:09 65.9 °F 54.6 °F 29.90 in WNW 1.0 mph 3.0 mph 67% 0.00 in
17:14 65.9 °F 55.4 °F 29.90 in WNW 1.0 mph 3.0 mph 69% 0.00 in
17:19 65.9 °F 54.6 °F 29.89 in NW 1.0 mph 3.0 mph 67% 0.00 in
17:24 65.9 °F 54.6 °F 29.90 in NW 2.0 mph 4.0 mph 67% 0.00 in
17:29 66.2 °F 54.5 °F 29.90 in NW 1.0 mph 4.0 mph 66% 0.00 in
17:34 66.4 °F 53.8 °F 29.90 in NW 1.0 mph 3.0 mph 64% 0.00 in
17:39 66.7 °F 55.8 °F 29.90 in Calm   2.0 mph 68% 0.00 in
17:44 67.9 °F 56.1 °F 29.89 in Calm   3.0 mph 66% 0.00 in
17:49 68.4 °F 55.3 °F 29.89 in NNW 1.0 mph 3.0 mph 63% 0.00 in
17:54 67.8 °F 55.2 °F 29.90 in Calm   4.0 mph 64% 0.00 in
17:59 67.7 °F 54.6 °F 29.90 in North 1.0 mph 4.0 mph 63% 0.00 in
18:04 67.6 °F 54.1 °F 29.90 in NNW 1.0 mph 4.0 mph 62% 0.00 in
18:09 67.1 °F 54.5 °F 29.90 in NW 1.0 mph 3.0 mph 64% 0.00 in
18:14 66.9 °F 54.3 °F 29.90 in WNW 1.0 mph 3.0 mph 64% 0.00 in
18:19 66.8 °F 54.7 °F 29.90 in WNW 1.0 mph 3.0 mph 65% 0.00 in
18:24 67.1 °F 54.1 °F 29.90 in WNW 2.0 mph 3.0 mph 63% 0.00 in
18:29 67.0 °F 54.8 °F 29.90 in WNW 1.0 mph 3.0 mph 65% 0.00 in
18:34 66.8 °F 55.9 °F 29.90 in Calm   2.0 mph 68% 0.00 in
18:39 66.7 °F 55.4 °F 29.90 in Calm   4.0 mph 67% 0.00 in
18:44 66.7 °F 55.4 °F 29.90 in Calm     67% 0.00 in
18:49 66.5 °F 55.2 °F 29.90 in Calm   2.0 mph 67% 0.00 in
18:54 66.5 °F 55.6 °F 29.91 in Calm   1.0 mph 68% 0.00 in
18:59 66.6 °F 55.3 °F 29.91 in South 1.0 mph 4.0 mph 67% 0.00 in
19:04 66.7 °F 55.0 °F 29.91 in South 1.0 mph 4.0 mph 66% 0.00 in
19:09 66.7 °F 54.1 °F 29.91 in NNW 1.0 mph 4.0 mph 64% 0.00 in
19:14 66.6 °F 54.5 °F 29.91 in NW 1.0 mph 4.0 mph 65% 0.00 in
19:19 66.4 °F 54.3 °F 29.91 in NW 1.0 mph 4.0 mph 65% 0.00 in
19:24 66.3 °F 54.6 °F 29.92 in NNW 2.0 mph 5.0 mph 66% 0.00 in
19:29 66.1 °F 54.0 °F 29.92 in NNW 1.0 mph 3.0 mph 65% 0.00 in
19:34 65.9 °F 53.8 °F 29.91 in NNW 1.0 mph 3.0 mph 65% 0.00 in
19:39 66.0 °F 53.5 °F 29.91 in Calm   2.0 mph 64% 0.00 in
19:44 66.1 °F 53.6 °F 29.91 in Calm   3.0 mph 64% 0.00 in
19:49 65.8 °F 54.5 °F 29.91 in SSW 1.0 mph 4.0 mph 67% 0.00 in
19:54 65.2 °F 54.4 °F 29.91 in Calm   5.0 mph 68% 0.00 in
19:59 64.8 °F 54.4 °F 29.91 in SW 1.0 mph 3.0 mph 69% 0.00 in
20:04 64.8 °F 54.8 °F 29.91 in SW 1.0 mph 3.0 mph 70% 0.00 in
20:09 64.6 °F 54.6 °F 29.91 in SW 1.0 mph 3.0 mph 70% 0.00 in
20:14 64.5 °F 54.1 °F 29.91 in Calm   2.0 mph 69% 0.00 in
20:19 64.4 °F 54.4 °F 29.91 in Calm   2.0 mph 70% 0.00 in
20:24 64.2 °F 53.8 °F 29.91 in Calm   2.0 mph 69% 0.00 in
20:29 64.2 °F 53.8 °F 29.91 in SW 1.0 mph 2.0 mph 69% 0.00 in
20:34 64.1 °F 53.7 °F 29.91 in Calm   2.0 mph 69% 0.00 in
20:39 63.9 °F 53.9 °F 29.91 in Calm   1.0 mph 70% 0.00 in
20:44 63.8 °F 54.2 °F 29.91 in Calm   1.0 mph 71% 0.00 in
20:49 63.5 °F 53.9 °F 29.91 in Calm     71% 0.00 in
20:54 63.1 °F 53.9 °F 29.90 in Calm     72% 0.00 in
20:59 62.7 °F 53.5 °F 29.90 in Calm     72% 0.00 in
21:04 62.3 °F 53.5 °F 29.90 in Calm     73% 0.00 in
21:09 61.9 °F 53.5 °F 29.90 in Calm     74% 0.00 in
21:14 61.5 °F 53.1 °F 29.90 in Calm     74% 0.00 in
21:19 61.3 °F 53.3 °F 29.90 in Calm   2.0 mph 75% 0.00 in
21:24 61.0 °F 53.0 °F 29.90 in Calm   1.0 mph 75% 0.00 in
21:29 60.3 °F 52.7 °F 29.91 in Calm     76% 0.00 in
21:34 59.9 °F 53.0 °F 29.91 in Calm     78% 0.00 in
21:39 59.4 °F 52.5 °F 29.91 in Calm     78% 0.00 in
21:44 59.1 °F 52.6 °F 29.91 in Calm     79% 0.00 in
21:49 58.7 °F 52.5 °F 29.91 in Calm     80% 0.00 in
21:54 58.5 °F 52.4 °F 29.91 in Calm     80% 0.00 in
21:59 58.3 °F 52.8 °F 29.91 in Calm     82% 0.00 in
22:04 58.1 °F 52.6 °F 29.90 in Calm     82% 0.00 in
22:09 57.9 °F 52.4 °F 29.91 in Calm     82% 0.00 in
22:14 57.8 °F 52.3 °F 29.90 in Calm     82% 0.00 in
22:19 57.5 °F 52.0 °F 29.90 in Calm     82% 0.00 in
22:24 57.4 °F 52.3 °F 29.90 in Calm     83% 0.00 in
22:29 57.1 °F 52.0 °F 29.90 in Calm     83% 0.00 in
22:34 57.5 °F 52.7 °F 29.89 in Calm   2.0 mph 84% 0.00 in
22:39 57.6 °F 52.8 °F 29.89 in Calm     84% 0.00 in
22:44 57.6 °F 52.8 °F 29.90 in Calm     84% 0.00 in
22:49 57.3 °F 52.5 °F 29.90 in Calm     84% 0.00 in
22:54 57.0 °F 52.2 °F 29.90 in Calm     84% 0.00 in
22:59 56.7 °F 52.2 °F 29.90 in Calm     85% 0.00 in
23:04 56.4 °F 51.9 °F 29.91 in Calm     85% 0.00 in
23:09 56.0 °F 51.9 °F 29.91 in Calm     86% 0.00 in
23:14 55.8 °F 51.7 °F 29.91 in Calm     86% 0.00 in
23:19 55.5 °F 51.7 °F 29.90 in Calm     87% 0.00 in
23:24 55.5 °F 51.7 °F 29.90 in Calm     87% 0.00 in
23:29 55.4 °F 51.6 °F 29.91 in Calm     87% 0.00 in
23:34 55.5 °F 52.0 °F 29.92 in Calm     88% 0.00 in
23:44 55.0 °F 51.5 °F 29.92 in Calm     88% 0.00 in
23:49 54.8 °F 51.3 °F 29.92 in Calm     88% 0.00 in
23:54 54.7 °F 51.2 °F 29.92 in Calm     88% 0.00 in
Buffalo, New York, USA
Compliments of Weather Underground - 2.5 mb